sensor_id;sensor_type;location;lat;lon;timestamp;P1;durP1;ratioP1;P2;durP2;ratioP2
65189;SDS011;51777;53.570;9.984;2023-03-11T00:00:55;12.35;;;8.70;;
65189;SDS011;51777;53.570;9.984;2023-03-11T00:03:20;13.45;;;8.60;;
65189;SDS011;51777;53.570;9.984;2023-03-11T00:05:51;13.13;;;9.20;;
65189;SDS011;51777;53.570;9.984;2023-03-11T00:08:19;15.40;;;10.00;;
65189;SDS011;51777;53.570;9.984;2023-03-11T00:10:47;16.05;;;9.63;;
65189;SDS011;51777;53.570;9.984;2023-03-11T00:13:16;13.10;;;9.80;;
65189;SDS011;51777;53.570;9.984;2023-03-11T00:15:43;16.55;;;10.93;;
65189;SDS011;51777;53.570;9.984;2023-03-11T00:18:11;14.60;;;10.27;;
65189;SDS011;51777;53.570;9.984;2023-03-11T00:20:37;16.40;;;10.60;;
65189;SDS011;51777;53.570;9.984;2023-03-11T00:23:04;15.65;;;10.25;;
65189;SDS011;51777;53.570;9.984;2023-03-11T00:25:32;14.70;;;10.25;;
65189;SDS011;51777;53.570;9.984;2023-03-11T00:27:59;17.25;;;11.05;;
65189;SDS011;51777;53.570;9.984;2023-03-11T00:30:25;18.00;;;11.82;;
65189;SDS011;51777;53.570;9.984;2023-03-11T00:32:53;16.20;;;11.10;;
65189;SDS011;51777;53.570;9.984;2023-03-11T00:35:22;17.00;;;10.95;;
65189;SDS011;51777;53.570;9.984;2023-03-11T00:37:53;19.90;;;11.88;;
65189;SDS011;51777;53.570;9.984;2023-03-11T00:40:21;20.70;;;12.07;;
65189;SDS011;51777;53.570;9.984;2023-03-11T00:42:47;16.08;;;11.20;;
65189;SDS011;51777;53.570;9.984;2023-03-11T00:45:14;18.02;;;11.07;;
65189;SDS011;51777;53.570;9.984;2023-03-11T00:47:40;18.67;;;11.73;;
65189;SDS011;51777;53.570;9.984;2023-03-11T00:50:06;15.73;;;11.05;;
65189;SDS011;51777;53.570;9.984;2023-03-11T00:52:33;18.23;;;11.15;;
65189;SDS011;51777;53.570;9.984;2023-03-11T00:54:59;20.45;;;11.88;;
65189;SDS011;51777;53.570;9.984;2023-03-11T00:57:25;19.98;;;12.65;;
65189;SDS011;51777;53.570;9.984;2023-03-11T00:59:53;16.50;;;11.45;;
65189;SDS011;51777;53.570;9.984;2023-03-11T01:02:18;18.85;;;11.68;;
65189;SDS011;51777;53.570;9.984;2023-03-11T01:04:44;16.38;;;11.10;;
65189;SDS011;51777;53.570;9.984;2023-03-11T01:07:10;14.77;;;10.63;;
65189;SDS011;51777;53.570;9.984;2023-03-11T01:09:35;18.17;;;12.00;;
65189;SDS011;51777;53.570;9.984;2023-03-11T01:12:00;18.63;;;12.00;;
65189;SDS011;51777;53.570;9.984;2023-03-11T01:14:26;21.30;;;11.95;;
65189;SDS011;51777;53.570;9.984;2023-03-11T01:16:51;18.05;;;11.80;;
65189;SDS011;51777;53.570;9.984;2023-03-11T01:19:18;18.60;;;11.23;;
65189;SDS011;51777;53.570;9.984;2023-03-11T01:21:43;17.08;;;11.05;;
65189;SDS011;51777;53.570;9.984;2023-03-11T01:24:09;17.58;;;11.35;;
65189;SDS011;51777;53.570;9.984;2023-03-11T01:26:34;17.15;;;10.30;;
65189;SDS011;51777;53.570;9.984;2023-03-11T01:29:00;16.63;;;11.38;;
65189;SDS011;51777;53.570;9.984;2023-03-11T01:31:25;19.23;;;10.90;;
65189;SDS011;51777;53.570;9.984;2023-03-11T01:33:50;18.10;;;10.77;;
65189;SDS011;51777;53.570;9.984;2023-03-11T01:36:16;16.60;;;11.73;;
65189;SDS011;51777;53.570;9.984;2023-03-11T01:38:41;18.80;;;11.32;;
65189;SDS011;51777;53.570;9.984;2023-03-11T01:41:07;17.35;;;11.38;;
65189;SDS011;51777;53.570;9.984;2023-03-11T01:48:51;14.07;;;9.95;;
65189;SDS011;51777;53.570;9.984;2023-03-11T01:51:19;14.35;;;10.27;;
65189;SDS011;51777;53.570;9.984;2023-03-11T01:54:08;16.83;;;9.80;;
65189;SDS011;51777;53.570;9.984;2023-03-11T01:56:37;17.33;;;11.02;;
65189;SDS011;51777;53.570;9.984;2023-03-11T01:59:05;15.23;;;10.65;;
65189;SDS011;51777;53.570;9.984;2023-03-11T02:01:33;17.58;;;10.88;;
65189;SDS011;51777;53.570;9.984;2023-03-11T02:04:02;17.08;;;10.88;;
65189;SDS011;51777;53.570;9.984;2023-03-11T02:06:28;23.92;;;10.57;;
65189;SDS011;51777;53.570;9.984;2023-03-11T02:08:56;16.60;;;11.50;;
65189;SDS011;51777;53.570;9.984;2023-03-11T02:11:22;15.98;;;10.85;;
65189;SDS011;51777;53.570;9.984;2023-03-11T02:13:51;16.38;;;11.00;;
65189;SDS011;51777;53.570;9.984;2023-03-11T02:16:18;15.73;;;11.30;;
65189;SDS011;51777;53.570;9.984;2023-03-11T02:18:44;16.00;;;10.95;;
65189;SDS011;51777;53.570;9.984;2023-03-11T02:21:29;14.88;;;10.93;;
65189;SDS011;51777;53.570;9.984;2023-03-11T02:26:36;18.20;;;11.07;;
65189;SDS011;51777;53.570;9.984;2023-03-11T02:29:24;16.33;;;10.88;;
65189;SDS011;51777;53.570;9.984;2023-03-11T02:31:52;15.65;;;10.52;;
65189;SDS011;51777;53.570;9.984;2023-03-11T02:34:27;15.88;;;9.93;;
65189;SDS011;51777;53.570;9.984;2023-03-11T02:36:55;16.33;;;10.35;;
65189;SDS011;51777;53.570;9.984;2023-03-11T02:39:40;18.13;;;10.88;;
65189;SDS011;51777;53.570;9.984;2023-03-11T02:42:14;14.57;;;10.10;;
65189;SDS011;51777;53.570;9.984;2023-03-11T02:44:44;15.75;;;10.27;;
65189;SDS011;51777;53.570;9.984;2023-03-11T02:47:14;16.20;;;10.95;;
65189;SDS011;51777;53.570;9.984;2023-03-11T02:49:41;18.90;;;10.45;;
65189;SDS011;51777;53.570;9.984;2023-03-11T02:52:06;16.00;;;10.23;;
65189;SDS011;51777;53.570;9.984;2023-03-11T02:54:32;14.23;;;10.52;;
65189;SDS011;51777;53.570;9.984;2023-03-11T02:56:57;16.20;;;10.40;;
65189;SDS011;51777;53.570;9.984;2023-03-11T02:59:23;14.63;;;9.48;;
65189;SDS011;51777;53.570;9.984;2023-03-11T03:01:48;14.77;;;9.95;;
65189;SDS011;51777;53.570;9.984;2023-03-11T03:04:14;15.57;;;10.07;;
65189;SDS011;51777;53.570;9.984;2023-03-11T03:06:39;14.93;;;10.68;;
65189;SDS011;51777;53.570;9.984;2023-03-11T03:09:04;18.02;;;10.98;;
65189;SDS011;51777;53.570;9.984;2023-03-11T03:11:30;15.02;;;9.98;;
65189;SDS011;51777;53.570;9.984;2023-03-11T03:13:55;15.68;;;10.80;;
65189;SDS011;51777;53.570;9.984;2023-03-11T03:16:21;13.73;;;9.27;;
65189;SDS011;51777;53.570;9.984;2023-03-11T03:18:46;17.58;;;10.52;;
65189;SDS011;51777;53.570;9.984;2023-03-11T03:21:12;12.80;;;9.50;;
65189;SDS011;51777;53.570;9.984;2023-03-11T03:23:37;13.77;;;9.40;;
65189;SDS011;51777;53.570;9.984;2023-03-11T03:26:03;12.25;;;8.50;;
65189;SDS011;51777;53.570;9.984;2023-03-11T03:28:29;13.35;;;9.38;;
65189;SDS011;51777;53.570;9.984;2023-03-11T03:30:54;13.70;;;9.45;;
65189;SDS011;51777;53.570;9.984;2023-03-11T03:33:20;13.07;;;9.35;;
65189;SDS011;51777;53.570;9.984;2023-03-11T03:35:46;13.52;;;9.10;;
65189;SDS011;51777;53.570;9.984;2023-03-11T03:38:12;14.70;;;9.13;;
65189;SDS011;51777;53.570;9.984;2023-03-11T03:40:37;13.55;;;8.95;;
65189;SDS011;51777;53.570;9.984;2023-03-11T03:43:03;14.15;;;9.25;;
65189;SDS011;51777;53.570;9.984;2023-03-11T03:45:29;15.50;;;10.02;;
65189;SDS011;51777;53.570;9.984;2023-03-11T03:47:55;14.32;;;9.73;;
65189;SDS011;51777;53.570;9.984;2023-03-11T03:50:20;16.15;;;9.68;;
65189;SDS011;51777;53.570;9.984;2023-03-11T03:52:46;15.75;;;10.27;;
65189;SDS011;51777;53.570;9.984;2023-03-11T03:55:12;16.30;;;10.50;;
65189;SDS011;51777;53.570;9.984;2023-03-11T03:57:42;13.25;;;9.30;;
65189;SDS011;51777;53.570;9.984;2023-03-11T04:00:07;14.98;;;9.85;;
65189;SDS011;51777;53.570;9.984;2023-03-11T04:02:33;15.73;;;9.75;;
65189;SDS011;51777;53.570;9.984;2023-03-11T04:04:59;15.48;;;10.13;;
65189;SDS011;51777;53.570;9.984;2023-03-11T04:07:24;15.77;;;10.38;;
65189;SDS011;51777;53.570;9.984;2023-03-11T04:09:50;14.10;;;9.32;;
65189;SDS011;51777;53.570;9.984;2023-03-11T04:12:15;13.40;;;9.05;;
65189;SDS011;51777;53.570;9.984;2023-03-11T04:14:44;14.52;;;9.20;;
65189;SDS011;51777;53.570;9.984;2023-03-11T04:17:12;16.65;;;9.20;;
65189;SDS011;51777;53.570;9.984;2023-03-11T04:19:38;14.55;;;8.95;;
65189;SDS011;51777;53.570;9.984;2023-03-11T04:22:03;13.13;;;9.02;;
65189;SDS011;51777;53.570;9.984;2023-03-11T04:24:29;16.13;;;8.77;;
65189;SDS011;51777;53.570;9.984;2023-03-11T04:26:54;15.43;;;8.90;;
65189;SDS011;51777;53.570;9.984;2023-03-11T04:29:20;13.98;;;8.90;;
65189;SDS011;51777;53.570;9.984;2023-03-11T04:31:45;12.57;;;8.73;;
65189;SDS011;51777;53.570;9.984;2023-03-11T04:34:10;13.18;;;8.68;;
65189;SDS011;51777;53.570;9.984;2023-03-11T04:36:36;12.10;;;8.48;;
65189;SDS011;51777;53.570;9.984;2023-03-11T04:39:01;12.05;;;8.57;;
65189;SDS011;51777;53.570;9.984;2023-03-11T04:41:27;13.50;;;9.23;;
65189;SDS011;51777;53.570;9.984;2023-03-11T04:43:53;11.00;;;7.75;;
65189;SDS011;51777;53.570;9.984;2023-03-11T04:46:18;14.15;;;9.13;;
65189;SDS011;51777;53.570;9.984;2023-03-11T04:48:43;12.98;;;8.88;;
65189;SDS011;51777;53.570;9.984;2023-03-11T04:51:09;11.63;;;8.13;;
65189;SDS011;51777;53.570;9.984;2023-03-11T04:53:34;13.45;;;8.77;;
65189;SDS011;51777;53.570;9.984;2023-03-11T04:56:00;12.27;;;8.60;;
65189;SDS011;51777;53.570;9.984;2023-03-11T04:58:25;17.27;;;9.43;;
65189;SDS011;51777;53.570;9.984;2023-03-11T05:00:51;12.93;;;8.63;;
65189;SDS011;51777;53.570;9.984;2023-03-11T05:03:17;12.68;;;8.48;;
65189;SDS011;51777;53.570;9.984;2023-03-11T05:05:43;12.18;;;8.27;;
65189;SDS011;51777;53.570;9.984;2023-03-11T05:08:08;15.93;;;8.50;;
65189;SDS011;51777;53.570;9.984;2023-03-11T05:10:34;12.27;;;8.40;;
65189;SDS011;51777;53.570;9.984;2023-03-11T05:13:00;12.20;;;8.23;;
65189;SDS011;51777;53.570;9.984;2023-03-11T05:15:26;11.98;;;8.27;;
65189;SDS011;51777;53.570;9.984;2023-03-11T05:17:52;12.93;;;8.13;;
65189;SDS011;51777;53.570;9.984;2023-03-11T05:20:18;12.35;;;8.23;;
65189;SDS011;51777;53.570;9.984;2023-03-11T05:22:43;15.43;;;7.28;;
65189;SDS011;51777;53.570;9.984;2023-03-11T05:25:09;13.43;;;8.05;;
65189;SDS011;51777;53.570;9.984;2023-03-11T05:27:34;13.13;;;8.25;;
65189;SDS011;51777;53.570;9.984;2023-03-11T05:29:59;9.95;;;7.82;;
65189;SDS011;51777;53.570;9.984;2023-03-11T05:32:25;11.88;;;8.00;;
65189;SDS011;51777;53.570;9.984;2023-03-11T05:34:50;13.15;;;7.80;;
65189;SDS011;51777;53.570;9.984;2023-03-11T05:37:16;12.15;;;7.97;;
65189;SDS011;51777;53.570;9.984;2023-03-11T05:39:42;13.38;;;7.80;;
65189;SDS011;51777;53.570;9.984;2023-03-11T05:42:07;10.65;;;7.40;;
65189;SDS011;51777;53.570;9.984;2023-03-11T05:44:33;14.75;;;8.30;;
65189;SDS011;51777;53.570;9.984;2023-03-11T05:46:59;13.68;;;7.78;;
65189;SDS011;51777;53.570;9.984;2023-03-11T05:49:25;11.70;;;8.05;;
65189;SDS011;51777;53.570;9.984;2023-03-11T05:51:51;13.27;;;8.85;;
65189;SDS011;51777;53.570;9.984;2023-03-11T05:54:18;9.48;;;7.25;;
65189;SDS011;51777;53.570;9.984;2023-03-11T05:56:43;11.20;;;7.65;;
65189;SDS011;51777;53.570;9.984;2023-03-11T05:59:11;11.63;;;7.65;;
65189;SDS011;51777;53.570;9.984;2023-03-11T06:01:37;14.05;;;8.25;;
65189;SDS011;51777;53.570;9.984;2023-03-11T06:04:03;12.02;;;8.38;;
65189;SDS011;51777;53.570;9.984;2023-03-11T06:06:29;12.38;;;7.60;;
65189;SDS011;51777;53.570;9.984;2023-03-11T06:08:55;15.38;;;8.80;;
65189;SDS011;51777;53.570;9.984;2023-03-11T06:11:21;14.65;;;8.20;;
65189;SDS011;51777;53.570;9.984;2023-03-11T06:13:51;13.60;;;8.18;;
65189;SDS011;51777;53.570;9.984;2023-03-11T06:16:18;13.70;;;8.45;;
65189;SDS011;51777;53.570;9.984;2023-03-11T06:18:44;14.02;;;8.45;;
65189;SDS011;51777;53.570;9.984;2023-03-11T06:21:10;12.85;;;8.07;;
65189;SDS011;51777;53.570;9.984;2023-03-11T06:23:41;14.15;;;8.50;;
65189;SDS011;51777;53.570;9.984;2023-03-11T06:26:06;11.20;;;7.63;;
65189;SDS011;51777;53.570;9.984;2023-03-11T06:28:32;12.75;;;8.20;;
65189;SDS011;51777;53.570;9.984;2023-03-11T06:31:05;11.80;;;8.23;;
65189;SDS011;51777;53.570;9.984;2023-03-11T06:33:35;11.90;;;8.40;;
65189;SDS011;51777;53.570;9.984;2023-03-11T06:36:01;13.40;;;8.07;;
65189;SDS011;51777;53.570;9.984;2023-03-11T06:38:28;11.77;;;7.80;;
65189;SDS011;51777;53.570;9.984;2023-03-11T06:40:57;15.40;;;8.40;;
65189;SDS011;51777;53.570;9.984;2023-03-11T06:43:23;13.63;;;8.30;;
65189;SDS011;51777;53.570;9.984;2023-03-11T06:45:49;12.93;;;8.30;;
65189;SDS011;51777;53.570;9.984;2023-03-11T06:48:14;13.10;;;8.55;;
65189;SDS011;51777;53.570;9.984;2023-03-11T06:50:40;12.75;;;7.97;;
65189;SDS011;51777;53.570;9.984;2023-03-11T06:53:05;12.30;;;7.80;;
65189;SDS011;51777;53.570;9.984;2023-03-11T06:55:31;12.45;;;7.60;;
65189;SDS011;51777;53.570;9.984;2023-03-11T06:57:57;11.20;;;7.43;;
65189;SDS011;51777;53.570;9.984;2023-03-11T07:00:23;10.10;;;6.82;;
65189;SDS011;51777;53.570;9.984;2023-03-11T07:02:48;11.50;;;7.47;;
65189;SDS011;51777;53.570;9.984;2023-03-11T07:05:14;10.80;;;7.18;;
65189;SDS011;51777;53.570;9.984;2023-03-11T07:07:39;11.25;;;7.03;;
65189;SDS011;51777;53.570;9.984;2023-03-11T07:10:05;9.05;;;6.43;;
65189;SDS011;51777;53.570;9.984;2023-03-11T07:12:30;12.20;;;6.95;;
65189;SDS011;51777;53.570;9.984;2023-03-11T07:14:56;10.13;;;6.10;;
65189;SDS011;51777;53.570;9.984;2023-03-11T07:17:22;8.27;;;5.90;;
65189;SDS011;51777;53.570;9.984;2023-03-11T07:19:49;8.05;;;5.30;;
65189;SDS011;51777;53.570;9.984;2023-03-11T07:22:15;7.78;;;5.40;;
65189;SDS011;51777;53.570;9.984;2023-03-11T07:24:40;7.43;;;5.28;;
65189;SDS011;51777;53.570;9.984;2023-03-11T07:27:09;6.43;;;4.78;;
65189;SDS011;51777;53.570;9.984;2023-03-11T07:29:34;6.18;;;4.93;;
65189;SDS011;51777;53.570;9.984;2023-03-11T07:31:59;7.65;;;5.00;;
65189;SDS011;51777;53.570;9.984;2023-03-11T07:34:25;7.53;;;4.97;;
65189;SDS011;51777;53.570;9.984;2023-03-11T07:36:50;7.60;;;5.05;;
65189;SDS011;51777;53.570;9.984;2023-03-11T07:39:16;6.38;;;5.30;;
65189;SDS011;51777;53.570;9.984;2023-03-11T07:41:42;5.80;;;4.88;;
65189;SDS011;51777;53.570;9.984;2023-03-11T07:44:12;6.90;;;4.80;;
65189;SDS011;51777;53.570;9.984;2023-03-11T07:46:38;9.45;;;5.20;;
65189;SDS011;51777;53.570;9.984;2023-03-11T07:49:03;5.90;;;4.78;;
65189;SDS011;51777;53.570;9.984;2023-03-11T07:51:30;4.78;;;4.25;;
65189;SDS011;51777;53.570;9.984;2023-03-11T07:53:57;6.50;;;4.38;;
65189;SDS011;51777;53.570;9.984;2023-03-11T07:56:24;5.57;;;4.40;;
65189;SDS011;51777;53.570;9.984;2023-03-11T07:59:05;7.80;;;4.57;;
65189;SDS011;51777;53.570;9.984;2023-03-11T08:01:31;6.88;;;4.50;;
65189;SDS011;51777;53.570;9.984;2023-03-11T08:04:01;6.70;;;4.50;;
65189;SDS011;51777;53.570;9.984;2023-03-11T08:06:30;5.47;;;4.38;;
65189;SDS011;51777;53.570;9.984;2023-03-11T08:09:00;5.85;;;4.30;;
65189;SDS011;51777;53.570;9.984;2023-03-11T08:11:28;7.97;;;4.10;;
65189;SDS011;51777;53.570;9.984;2023-03-11T08:13:54;8.85;;;4.43;;
65189;SDS011;51777;53.570;9.984;2023-03-11T08:16:21;9.50;;;4.10;;
65189;SDS011;51777;53.570;9.984;2023-03-11T08:18:48;5.38;;;3.53;;
65189;SDS011;51777;53.570;9.984;2023-03-11T08:21:15;6.65;;;3.45;;
65189;SDS011;51777;53.570;9.984;2023-03-11T08:23:42;4.45;;;3.45;;
65189;SDS011;51777;53.570;9.984;2023-03-11T08:26:11;4.85;;;3.10;;
65189;SDS011;51777;53.570;9.984;2023-03-11T08:28:38;4.43;;;3.42;;
65189;SDS011;51777;53.570;9.984;2023-03-11T08:31:10;3.90;;;3.35;;
65189;SDS011;51777;53.570;9.984;2023-03-11T08:33:37;5.57;;;3.20;;
65189;SDS011;51777;53.570;9.984;2023-03-11T08:36:03;4.85;;;3.17;;
65189;SDS011;51777;53.570;9.984;2023-03-11T08:38:29;5.35;;;3.47;;
65189;SDS011;51777;53.570;9.984;2023-03-11T08:40:54;4.72;;;3.20;;
65189;SDS011;51777;53.570;9.984;2023-03-11T08:43:19;4.13;;;3.20;;
65189;SDS011;51777;53.570;9.984;2023-03-11T08:45:45;6.43;;;3.38;;
65189;SDS011;51777;53.570;9.984;2023-03-11T08:48:10;6.85;;;3.25;;
65189;SDS011;51777;53.570;9.984;2023-03-11T08:50:36;9.80;;;3.70;;
65189;SDS011;51777;53.570;9.984;2023-03-11T08:53:05;4.47;;;3.42;;
65189;SDS011;51777;53.570;9.984;2023-03-11T08:55:31;4.60;;;2.92;;
65189;SDS011;51777;53.570;9.984;2023-03-11T08:57:56;5.97;;;2.72;;
65189;SDS011;51777;53.570;9.984;2023-03-11T09:00:21;3.85;;;2.70;;
65189;SDS011;51777;53.570;9.984;2023-03-11T09:02:47;5.55;;;2.55;;
65189;SDS011;51777;53.570;9.984;2023-03-11T09:05:13;2.75;;;2.20;;
65189;SDS011;51777;53.570;9.984;2023-03-11T09:07:38;4.15;;;2.70;;
65189;SDS011;51777;53.570;9.984;2023-03-11T09:10:04;5.25;;;2.38;;
65189;SDS011;51777;53.570;9.984;2023-03-11T09:12:30;3.42;;;2.35;;
65189;SDS011;51777;53.570;9.984;2023-03-11T09:14:56;3.88;;;2.50;;
65189;SDS011;51777;53.570;9.984;2023-03-11T09:17:21;4.07;;;2.45;;
65189;SDS011;51777;53.570;9.984;2023-03-11T09:19:47;4.72;;;2.05;;
65189;SDS011;51777;53.570;9.984;2023-03-11T09:22:12;5.03;;;2.38;;
65189;SDS011;51777;53.570;9.984;2023-03-11T09:24:38;4.90;;;2.40;;
65189;SDS011;51777;53.570;9.984;2023-03-11T09:27:03;4.53;;;2.22;;
65189;SDS011;51777;53.570;9.984;2023-03-11T09:29:28;4.55;;;2.60;;
65189;SDS011;51777;53.570;9.984;2023-03-11T09:31:54;4.18;;;2.10;;
65189;SDS011;51777;53.570;9.984;2023-03-11T09:34:20;5.00;;;2.20;;
65189;SDS011;51777;53.570;9.984;2023-03-11T09:36:45;3.85;;;2.13;;
65189;SDS011;51777;53.570;9.984;2023-03-11T09:39:11;4.82;;;2.53;;
65189;SDS011;51777;53.570;9.984;2023-03-11T09:41:53;3.13;;;1.90;;
65189;SDS011;51777;53.570;9.984;2023-03-11T09:58:00;4.70;;;1.67;;
65189;SDS011;51777;53.570;9.984;2023-03-11T10:00:33;3.53;;;1.60;;
65189;SDS011;51777;53.570;9.984;2023-03-11T10:02:59;4.30;;;2.00;;
65189;SDS011;51777;53.570;9.984;2023-03-11T10:05:27;5.20;;;1.90;;
65189;SDS011;51777;53.570;9.984;2023-03-11T10:07:57;5.75;;;2.00;;
65189;SDS011;51777;53.570;9.984;2023-03-11T10:10:29;4.22;;;2.00;;
65189;SDS011;51777;53.570;9.984;2023-03-11T10:13:07;4.97;;;2.20;;
65189;SDS011;51777;53.570;9.984;2023-03-11T10:15:48;6.72;;;2.30;;
65189;SDS011;51777;53.570;9.984;2023-03-11T10:26:03;3.75;;;1.88;;
65189;SDS011;51777;53.570;9.984;2023-03-11T10:28:41;5.80;;;2.05;;
65189;SDS011;51777;53.570;9.984;2023-03-11T10:31:28;5.00;;;2.00;;
65189;SDS011;51777;53.570;9.984;2023-03-11T10:33:58;6.53;;;2.13;;
65189;SDS011;51777;53.570;9.984;2023-03-11T10:36:34;4.10;;;1.83;;
65189;SDS011;51777;53.570;9.984;2023-03-11T10:39:04;4.30;;;1.75;;
65189;SDS011;51777;53.570;9.984;2023-03-11T10:41:53;2.75;;;1.80;;
65189;SDS011;51777;53.570;9.984;2023-03-11T10:46:58;5.10;;;1.67;;
65189;SDS011;51777;53.570;9.984;2023-03-11T10:49:24;5.35;;;2.20;;
65189;SDS011;51777;53.570;9.984;2023-03-11T10:51:51;3.78;;;1.85;;
65189;SDS011;51777;53.570;9.984;2023-03-11T10:54:35;4.00;;;1.65;;
65189;SDS011;51777;53.570;9.984;2023-03-11T10:59:51;11.80;;;2.10;;
65189;SDS011;51777;53.570;9.984;2023-03-11T11:02:31;4.97;;;1.88;;
65189;SDS011;51777;53.570;9.984;2023-03-11T11:07:39;3.50;;;2.08;;
65189;SDS011;51777;53.570;9.984;2023-03-11T11:10:12;5.00;;;2.20;;
65189;SDS011;51777;53.570;9.984;2023-03-11T11:15:22;5.65;;;2.30;;
65189;SDS011;51777;53.570;9.984;2023-03-11T11:18:41;7.20;;;2.55;;
65189;SDS011;51777;53.570;9.984;2023-03-11T11:20:55;5.88;;;2.17;;
65189;SDS011;51777;53.570;9.984;2023-03-11T11:23:48;7.15;;;3.10;;
65189;SDS011;51777;53.570;9.984;2023-03-11T11:26:24;7.38;;;2.35;;
65189;SDS011;51777;53.570;9.984;2023-03-11T11:29:23;6.22;;;2.35;;
65189;SDS011;51777;53.570;9.984;2023-03-11T11:31:43;6.10;;;2.22;;
65189;SDS011;51777;53.570;9.984;2023-03-11T11:34:23;3.15;;;1.75;;
65189;SDS011;51777;53.570;9.984;2023-03-11T11:36:53;3.70;;;2.13;;
65189;SDS011;51777;53.570;9.984;2023-03-11T11:39:21;5.13;;;2.28;;
65189;SDS011;51777;53.570;9.984;2023-03-11T11:41:50;4.80;;;2.13;;
65189;SDS011;51777;53.570;9.984;2023-03-11T11:44:18;5.55;;;2.13;;
65189;SDS011;51777;53.570;9.984;2023-03-11T11:46:47;7.75;;;2.20;;
65189;SDS011;51777;53.570;9.984;2023-03-11T11:49:32;4.95;;;1.55;;
65189;SDS011;51777;53.570;9.984;2023-03-11T11:52:01;6.15;;;1.83;;
65189;SDS011;51777;53.570;9.984;2023-03-11T11:54:40;8.13;;;1.58;;
65189;SDS011;51777;53.570;9.984;2023-03-11T11:57:15;5.47;;;1.45;;
65189;SDS011;51777;53.570;9.984;2023-03-11T11:59:42;1.70;;;0.88;;
65189;SDS011;51777;53.570;9.984;2023-03-11T12:02:32;4.88;;;1.50;;
65189;SDS011;51777;53.570;9.984;2023-03-11T12:10:43;5.25;;;1.02;;
65189;SDS011;51777;53.570;9.984;2023-03-11T12:13:42;3.63;;;1.20;;
65189;SDS011;51777;53.570;9.984;2023-03-11T12:16:19;2.70;;;1.05;;
65189;SDS011;51777;53.570;9.984;2023-03-11T12:19:00;6.25;;;1.27;;
65189;SDS011;51777;53.570;9.984;2023-03-11T12:26:46;4.82;;;0.90;;
65189;SDS011;51777;53.570;9.984;2023-03-11T12:29:27;5.18;;;0.90;;
65189;SDS011;51777;53.570;9.984;2023-03-11T12:31:58;4.20;;;0.90;;
65189;SDS011;51777;53.570;9.984;2023-03-11T12:34:25;3.30;;;0.80;;
65189;SDS011;51777;53.570;9.984;2023-03-11T12:36:52;3.85;;;0.95;;
65189;SDS011;51777;53.570;9.984;2023-03-11T12:39:28;3.30;;;0.85;;
65189;SDS011;51777;53.570;9.984;2023-03-11T12:44:50;6.03;;;0.90;;
65189;SDS011;51777;53.570;9.984;2023-03-11T12:47:21;4.45;;;0.82;;
65189;SDS011;51777;53.570;9.984;2023-03-11T12:49:54;2.97;;;0.80;;
65189;SDS011;51777;53.570;9.984;2023-03-11T12:52:50;3.28;;;0.70;;
65189;SDS011;51777;53.570;9.984;2023-03-11T13:00:12;4.13;;;1.00;;
65189;SDS011;51777;53.570;9.984;2023-03-11T13:05:47;5.93;;;1.30;;
65189;SDS011;51777;53.570;9.984;2023-03-11T13:08:48;3.95;;;1.00;;
65189;SDS011;51777;53.570;9.984;2023-03-11T13:11:28;3.60;;;0.82;;
65189;SDS011;51777;53.570;9.984;2023-03-11T13:16:46;6.28;;;1.00;;
65189;SDS011;51777;53.570;9.984;2023-03-11T13:21:53;2.97;;;0.90;;
65189;SDS011;51777;53.570;9.984;2023-03-11T13:32:11;27.92;;;1.73;;
65189;SDS011;51777;53.570;9.984;2023-03-11T13:35:00;4.60;;;1.00;;
65189;SDS011;51777;53.570;9.984;2023-03-11T13:43:24;3.88;;;1.25;;
65189;SDS011;51777;53.570;9.984;2023-03-11T13:46:04;4.05;;;1.02;;
65189;SDS011;51777;53.570;9.984;2023-03-11T13:48:40;1.10;;;0.63;;
65189;SDS011;51777;53.570;9.984;2023-03-11T13:54:01;1.95;;;0.95;;
65189;SDS011;51777;53.570;9.984;2023-03-11T13:56:32;5.05;;;1.00;;
65189;SDS011;51777;53.570;9.984;2023-03-11T13:59:14;4.82;;;1.00;;
65189;SDS011;51777;53.570;9.984;2023-03-11T14:01:47;5.68;;;1.05;;
65189;SDS011;51777;53.570;9.984;2023-03-11T14:04:14;4.63;;;0.90;;
65189;SDS011;51777;53.570;9.984;2023-03-11T14:09:22;1.83;;;0.85;;
65189;SDS011;51777;53.570;9.984;2023-03-11T14:11:51;1.42;;;0.70;;
65189;SDS011;51777;53.570;9.984;2023-03-11T14:14:26;2.40;;;0.82;;
65189;SDS011;51777;53.570;9.984;2023-03-11T14:16:58;1.98;;;0.80;;
65189;SDS011;51777;53.570;9.984;2023-03-11T14:19:27;4.13;;;0.80;;
65189;SDS011;51777;53.570;9.984;2023-03-11T14:21:53;4.93;;;0.90;;
65189;SDS011;51777;53.570;9.984;2023-03-11T14:24:23;3.25;;;0.80;;
65189;SDS011;51777;53.570;9.984;2023-03-11T14:26:50;2.20;;;0.70;;
65189;SDS011;51777;53.570;9.984;2023-03-11T14:29:20;4.80;;;0.80;;
65189;SDS011;51777;53.570;9.984;2023-03-11T14:35:15;4.82;;;0.98;;
65189;SDS011;51777;53.570;9.984;2023-03-11T14:37:43;3.08;;;0.80;;
65189;SDS011;51777;53.570;9.984;2023-03-11T14:40:22;4.68;;;0.90;;
65189;SDS011;51777;53.570;9.984;2023-03-11T14:42:57;1.25;;;0.70;;
65189;SDS011;51777;53.570;9.984;2023-03-11T14:45:28;7.50;;;1.20;;
65189;SDS011;51777;53.570;9.984;2023-03-11T14:47:58;5.22;;;1.00;;
65189;SDS011;51777;53.570;9.984;2023-03-11T14:50:37;3.85;;;0.90;;
65189;SDS011;51777;53.570;9.984;2023-03-11T14:55:32;5.07;;;0.85;;
65189;SDS011;51777;53.570;9.984;2023-03-11T15:00:33;0.40;;;0.40;;
65189;SDS011;51777;53.570;9.984;2023-03-11T15:03:10;3.65;;;0.82;;
65189;SDS011;51777;53.570;9.984;2023-03-11T15:08:11;5.20;;;1.00;;
65189;SDS011;51777;53.570;9.984;2023-03-11T15:10:37;5.28;;;0.90;;
65189;SDS011;51777;53.570;9.984;2023-03-11T15:13:24;3.22;;;0.98;;
65189;SDS011;51777;53.570;9.984;2023-03-11T15:15:54;3.72;;;1.10;;
65189;SDS011;51777;53.570;9.984;2023-03-11T15:23:30;3.65;;;0.98;;
65189;SDS011;51777;53.570;9.984;2023-03-11T15:25:59;4.10;;;1.10;;
65189;SDS011;51777;53.570;9.984;2023-03-11T15:28:29;3.88;;;0.90;;
65189;SDS011;51777;53.570;9.984;2023-03-11T15:31:16;3.47;;;1.02;;
65189;SDS011;51777;53.570;9.984;2023-03-11T15:33:55;4.93;;;1.10;;
65189;SDS011;51777;53.570;9.984;2023-03-11T15:36:36;1.75;;;0.80;;
65189;SDS011;51777;53.570;9.984;2023-03-11T15:41:41;0.75;;;0.52;;
65189;SDS011;51777;53.570;9.984;2023-03-11T15:46:52;7.10;;;1.50;;
65189;SDS011;51777;53.570;9.984;2023-03-11T15:49:18;3.20;;;1.10;;
65189;SDS011;51777;53.570;9.984;2023-03-11T15:51:47;5.53;;;1.25;;
65189;SDS011;51777;53.570;9.984;2023-03-11T15:54:12;1.58;;;0.93;;
65189;SDS011;51777;53.570;9.984;2023-03-11T15:56:38;5.00;;;1.40;;
65189;SDS011;51777;53.570;9.984;2023-03-11T15:59:05;6.65;;;1.40;;
65189;SDS011;51777;53.570;9.984;2023-03-11T16:01:30;1.30;;;0.50;;
65189;SDS011;51777;53.570;9.984;2023-03-11T16:03:56;3.22;;;1.40;;
65189;SDS011;51777;53.570;9.984;2023-03-11T16:06:22;7.00;;;1.38;;
65189;SDS011;51777;53.570;9.984;2023-03-11T16:08:47;1.42;;;1.33;;
65189;SDS011;51777;53.570;9.984;2023-03-11T16:11:13;5.90;;;1.58;;
65189;SDS011;51777;53.570;9.984;2023-03-11T16:13:40;5.88;;;1.60;;
65189;SDS011;51777;53.570;9.984;2023-03-11T16:16:14;11.60;;;5.10;;
65189;SDS011;51777;53.570;9.984;2023-03-11T16:18:41;2.40;;;1.73;;
65189;SDS011;51777;53.570;9.984;2023-03-11T16:21:07;6.18;;;3.58;;
65189;SDS011;51777;53.570;9.984;2023-03-11T16:23:39;4.03;;;1.80;;
65189;SDS011;51777;53.570;9.984;2023-03-11T16:26:05;4.03;;;2.20;;
65189;SDS011;51777;53.570;9.984;2023-03-11T16:28:33;8.60;;;2.80;;
65189;SDS011;51777;53.570;9.984;2023-03-11T16:30:59;8.95;;;2.97;;
65189;SDS011;51777;53.570;9.984;2023-03-11T16:33:24;3.58;;;1.95;;
65189;SDS011;51777;53.570;9.984;2023-03-11T16:35:50;4.05;;;2.00;;